sensor_id;sensor_type;location;lat;lon;timestamp;pressure;altitude;pressure_sealevel;temperature;humidity
48882;BME280;57063;51.406;-2.402;2022-08-02T00:00:19;100639.44;;;23.51;88.79
48882;BME280;57063;51.406;-2.402;2022-08-02T00:02:45;100640.91;;;23.39;90.57
48882;BME280;57063;51.406;-2.402;2022-08-02T00:05:12;100644.06;;;23.42;90.16
48882;BME280;57063;51.406;-2.402;2022-08-02T00:07:38;100646.28;;;23.39;90.49
48882;BME280;57063;51.406;-2.402;2022-08-02T00:10:05;100649.13;;;23.37;90.58
48882;BME280;57063;51.406;-2.402;2022-08-02T00:12:30;100636.09;;;23.34;90.96
48882;BME280;57063;51.406;-2.402;2022-08-02T00:14:56;100645.25;;;23.25;91.38
48882;BME280;57063;51.406;-2.402;2022-08-02T00:17:21;100637.59;;;23.36;91.71
48882;BME280;57063;51.406;-2.402;2022-08-02T00:19:47;100632.22;;;22.99;94.39
48882;BME280;57063;51.406;-2.402;2022-08-02T00:22:12;100626.66;;;23.23;94.05
48882;BME280;57063;51.406;-2.402;2022-08-02T00:24:37;100636.56;;;23.38;92.70
48882;BME280;57063;51.406;-2.402;2022-08-02T00:27:03;100628.66;;;23.44;92.47
48882;BME280;57063;51.406;-2.402;2022-08-02T00:29:29;100624.75;;;23.47;92.60
48882;BME280;57063;51.406;-2.402;2022-08-02T00:31:55;100618.44;;;23.25;94.49
48882;BME280;57063;51.406;-2.402;2022-08-02T00:34:21;100622.25;;;23.30;93.69
48882;BME280;57063;51.406;-2.402;2022-08-02T00:36:46;100622.16;;;23.39;94.17
48882;BME280;57063;51.406;-2.402;2022-08-02T00:39:11;100620.00;;;23.19;95.11
48882;BME280;57063;51.406;-2.402;2022-08-02T00:41:47;100618.44;;;23.02;97.59
48882;BME280;57063;51.406;-2.402;2022-08-02T00:44:16;100609.56;;;23.24;95.83
48882;BME280;57063;51.406;-2.402;2022-08-02T00:46:42;100616.97;;;23.37;95.04
48882;BME280;57063;51.406;-2.402;2022-08-02T00:49:07;100606.94;;;22.78;98.39
48882;BME280;57063;51.406;-2.402;2022-08-02T00:51:33;100610.38;;;22.87;99.00
48882;BME280;57063;51.406;-2.402;2022-08-02T00:53:59;100612.22;;;23.09;97.33
48882;BME280;57063;51.406;-2.402;2022-08-02T00:56:24;100606.22;;;23.22;96.83
48882;BME280;57063;51.406;-2.402;2022-08-02T00:58:49;100607.72;;;23.25;96.59
48882;BME280;57063;51.406;-2.402;2022-08-02T01:01:14;100602.50;;;23.46;95.73
48882;BME280;57063;51.406;-2.402;2022-08-02T01:03:40;100594.78;;;23.13;97.60
48882;BME280;57063;51.406;-2.402;2022-08-02T01:06:06;100599.53;;;23.26;97.10
48882;BME280;57063;51.406;-2.402;2022-08-02T01:08:31;100589.63;;;23.27;97.49
48882;BME280;57063;51.406;-2.402;2022-08-02T01:10:57;100592.31;;;23.42;96.41
48882;BME280;57063;51.406;-2.402;2022-08-02T01:13:23;100577.63;;;23.52;95.61
48882;BME280;57063;51.406;-2.402;2022-08-02T01:15:57;100586.56;;;23.30;97.54
48882;BME280;57063;51.406;-2.402;2022-08-02T01:18:33;100588.88;;;23.48;96.29
48882;BME280;57063;51.406;-2.402;2022-08-02T01:27:14;100576.53;;;23.47;97.12
48882;BME280;57063;51.406;-2.402;2022-08-02T01:29:50;100577.91;;;23.43;97.61
48882;BME280;57063;51.406;-2.402;2022-08-02T01:32:23;100570.53;;;23.45;97.59
48882;BME280;57063;51.406;-2.402;2022-08-02T01:34:54;100583.25;;;23.28;98.11
48882;BME280;57063;51.406;-2.402;2022-08-02T01:37:27;100584.88;;;23.14;99.03
48882;BME280;57063;51.406;-2.402;2022-08-02T01:39:57;100579.00;;;23.33;98.50
48882;BME280;57063;51.406;-2.402;2022-08-02T01:42:24;100580.69;;;23.34;97.72
48882;BME280;57063;51.406;-2.402;2022-08-02T01:44:52;100584.34;;;23.33;98.57
48882;BME280;57063;51.406;-2.402;2022-08-02T01:47:25;100584.75;;;23.30;99.25
48882;BME280;57063;51.406;-2.402;2022-08-02T01:49:54;100585.66;;;23.38;98.46
48882;BME280;57063;51.406;-2.402;2022-08-02T01:52:22;100571.41;;;23.22;99.59
48882;BME280;57063;51.406;-2.402;2022-08-02T01:54:58;100582.88;;;23.46;98.19
48882;BME280;57063;51.406;-2.402;2022-08-02T01:57:26;100569.13;;;23.19;99.68
48882;BME280;57063;51.406;-2.402;2022-08-02T01:59:55;100579.38;;;23.30;99.32
48882;BME280;57063;51.406;-2.402;2022-08-02T02:02:22;100567.09;;;23.21;99.23
48882;BME280;57063;51.406;-2.402;2022-08-02T02:04:49;100565.31;;;23.13;99.76
48882;BME280;57063;51.406;-2.402;2022-08-02T02:07:17;100560.03;;;23.20;99.54
48882;BME280;57063;51.406;-2.402;2022-08-02T02:09:45;100560.59;;;23.15;99.97
48882;BME280;57063;51.406;-2.402;2022-08-02T02:12:12;100562.94;;;23.33;99.44
48882;BME280;57063;51.406;-2.402;2022-08-02T02:14:38;100562.94;;;23.33;99.23
48882;BME280;57063;51.406;-2.402;2022-08-02T02:17:06;100554.44;;;23.15;99.61
48882;BME280;57063;51.406;-2.402;2022-08-02T02:19:35;100551.44;;;23.10;100.00
48882;BME280;57063;51.406;-2.402;2022-08-02T02:22:01;100552.94;;;23.27;99.22
48882;BME280;57063;51.406;-2.402;2022-08-02T02:24:26;100557.22;;;23.36;98.97
48882;BME280;57063;51.406;-2.402;2022-08-02T02:26:52;100542.03;;;23.14;99.72
48882;BME280;57063;51.406;-2.402;2022-08-02T02:29:19;100547.50;;;23.35;99.12
48882;BME280;57063;51.406;-2.402;2022-08-02T02:31:46;100546.75;;;23.42;98.74
48882;BME280;57063;51.406;-2.402;2022-08-02T02:34:15;100541.69;;;23.17;99.45
48882;BME280;57063;51.406;-2.402;2022-08-02T02:36:45;100539.66;;;23.19;100.00
48882;BME280;57063;51.406;-2.402;2022-08-02T02:39:13;100538.06;;;23.40;99.12
48882;BME280;57063;51.406;-2.402;2022-08-02T02:41:41;100541.22;;;22.90;100.00
48882;BME280;57063;51.406;-2.402;2022-08-02T02:44:10;100539.66;;;23.19;100.00
48882;BME280;57063;51.406;-2.402;2022-08-02T02:46:38;100530.25;;;22.85;100.00
48882;BME280;57063;51.406;-2.402;2022-08-02T02:49:05;100537.41;;;22.70;100.00
48882;BME280;57063;51.406;-2.402;2022-08-02T02:51:31;100535.28;;;23.03;100.00
48882;BME280;57063;51.406;-2.402;2022-08-02T02:53:57;100529.94;;;23.18;100.00
48882;BME280;57063;51.406;-2.402;2022-08-02T02:56:23;100525.63;;;22.94;100.00
48882;BME280;57063;51.406;-2.402;2022-08-02T02:58:49;100526.69;;;23.08;100.00
48882;BME280;57063;51.406;-2.402;2022-08-02T03:01:17;100523.28;;;23.14;100.00
48882;BME280;57063;51.406;-2.402;2022-08-02T03:04:01;100520.69;;;23.06;100.00
48882;BME280;57063;51.406;-2.402;2022-08-02T03:06:28;100527.91;;;22.82;100.00
48882;BME280;57063;51.406;-2.402;2022-08-02T03:08:54;100518.16;;;22.89;100.00
48882;BME280;57063;51.406;-2.402;2022-08-02T03:11:20;100516.53;;;23.18;100.00
48882;BME280;57063;51.406;-2.402;2022-08-02T03:13:47;100520.19;;;22.87;100.00
48882;BME280;57063;51.406;-2.402;2022-08-02T03:16:12;100516.69;;;23.02;100.00
48882;BME280;57063;51.406;-2.402;2022-08-02T03:18:40;100512.66;;;23.06;100.00
48882;BME280;57063;51.406;-2.402;2022-08-02T03:21:12;100514.41;;;22.99;100.00
48882;BME280;57063;51.406;-2.402;2022-08-02T03:23:40;100513.13;;;23.09;100.00
48882;BME280;57063;51.406;-2.402;2022-08-02T03:26:07;100512.97;;;23.11;100.00
48882;BME280;57063;51.406;-2.402;2022-08-02T03:28:33;100510.91;;;23.28;100.00
48882;BME280;57063;51.406;-2.402;2022-08-02T03:30:59;100500.59;;;23.25;100.00
48882;BME280;57063;51.406;-2.402;2022-08-02T03:33:26;100506.16;;;23.00;100.00
48882;BME280;57063;51.406;-2.402;2022-08-02T03:35:53;100505.00;;;23.17;100.00
48882;BME280;57063;51.406;-2.402;2022-08-02T03:38:20;100497.47;;;22.83;100.00
48882;BME280;57063;51.406;-2.402;2022-08-02T03:40:47;100498.03;;;22.93;100.00
48882;BME280;57063;51.406;-2.402;2022-08-02T03:43:14;100493.56;;;22.71;100.00
48882;BME280;57063;51.406;-2.402;2022-08-02T03:45:46;100496.22;;;23.24;100.00
48882;BME280;57063;51.406;-2.402;2022-08-02T03:48:12;100499.56;;;23.11;100.00
48882;BME280;57063;51.406;-2.402;2022-08-02T03:50:39;100493.63;;;23.01;100.00
48882;BME280;57063;51.406;-2.402;2022-08-02T03:53:06;100486.78;;;22.83;100.00
48882;BME280;57063;51.406;-2.402;2022-08-02T03:55:32;100487.69;;;22.90;100.00
48882;BME280;57063;51.406;-2.402;2022-08-02T03:57:58;100497.50;;;22.60;100.00
48882;BME280;57063;51.406;-2.402;2022-08-02T04:00:24;100487.13;;;22.80;100.00
48882;BME280;57063;51.406;-2.402;2022-08-02T04:02:50;100491.75;;;22.86;100.00
48882;BME280;57063;51.406;-2.402;2022-08-02T04:05:16;100488.31;;;22.77;100.00
48882;BME280;57063;51.406;-2.402;2022-08-02T04:07:42;100485.34;;;22.57;100.00
48882;BME280;57063;51.406;-2.402;2022-08-02T04:10:09;100482.19;;;22.54;100.00
48882;BME280;57063;51.406;-2.402;2022-08-02T04:12:35;100479.09;;;22.65;100.00
48882;BME280;57063;51.406;-2.402;2022-08-02T04:15:03;100479.25;;;22.64;100.00
48882;BME280;57063;51.406;-2.402;2022-08-02T04:17:31;100489.78;;;22.65;100.00
48882;BME280;57063;51.406;-2.402;2022-08-02T04:20:19;100481.13;;;22.78;100.00
48882;BME280;57063;51.406;-2.402;2022-08-02T04:22:58;100485.72;;;22.69;100.00
48882;BME280;57063;51.406;-2.402;2022-08-02T04:25:25;100488.34;;;22.54;100.00
48882;BME280;57063;51.406;-2.402;2022-08-02T04:27:52;100483.06;;;22.84;100.00
48882;BME280;57063;51.406;-2.402;2022-08-02T04:30:17;100490.88;;;22.71;100.00
48882;BME280;57063;51.406;-2.402;2022-08-02T04:32:44;100497.47;;;22.83;100.00
48882;BME280;57063;51.406;-2.402;2022-08-02T04:35:10;100486.13;;;22.81;100.00
48882;BME280;57063;51.406;-2.402;2022-08-02T04:37:37;100496.00;;;22.95;100.00
48882;BME280;57063;51.406;-2.402;2022-08-02T04:40:07;100491.41;;;23.04;100.00
48882;BME280;57063;51.406;-2.402;2022-08-02T04:42:33;100496.69;;;22.60;100.00
48882;BME280;57063;51.406;-2.402;2022-08-02T04:44:58;100493.47;;;22.64;100.00
48882;BME280;57063;51.406;-2.402;2022-08-02T04:47:24;100493.03;;;22.37;100.00
48882;BME280;57063;51.406;-2.402;2022-08-02T04:49:49;100486.00;;;22.74;100.00
48882;BME280;57063;51.406;-2.402;2022-08-02T04:52:15;100491.19;;;22.76;100.00
48882;BME280;57063;51.406;-2.402;2022-08-02T04:54:40;100481.75;;;22.65;100.00
48882;BME280;57063;51.406;-2.402;2022-08-02T04:57:05;100483.97;;;22.62;100.00
48882;BME280;57063;51.406;-2.402;2022-08-02T04:59:50;100480.31;;;22.54;100.00
48882;BME280;57063;51.406;-2.402;2022-08-02T05:02:16;100483.66;;;22.56;100.00
48882;BME280;57063;51.406;-2.402;2022-08-02T05:04:41;100488.09;;;22.64;100.00
48882;BME280;57063;51.406;-2.402;2022-08-02T05:07:06;100490.75;;;22.49;100.00
48882;BME280;57063;51.406;-2.402;2022-08-02T05:09:31;100491.69;;;22.56;100.00
48882;BME280;57063;51.406;-2.402;2022-08-02T05:11:56;100486.94;;;22.82;100.00
48882;BME280;57063;51.406;-2.402;2022-08-02T05:14:22;100491.94;;;23.00;100.00
48882;BME280;57063;51.406;-2.402;2022-08-02T05:16:47;100493.28;;;23.04;100.00
48882;BME280;57063;51.406;-2.402;2022-08-02T05:19:12;100494.09;;;22.66;100.00
48882;BME280;57063;51.406;-2.402;2022-08-02T05:21:37;100502.19;;;22.96;100.00
48882;BME280;57063;51.406;-2.402;2022-08-02T05:24:03;100498.69;;;22.95;100.00
48882;BME280;57063;51.406;-2.402;2022-08-02T05:26:28;100496.50;;;23.14;100.00
48882;BME280;57063;51.406;-2.402;2022-08-02T05:28:53;100499.34;;;22.97;100.00
48882;BME280;57063;51.406;-2.402;2022-08-02T05:31:19;100502.47;;;23.01;100.00
48882;BME280;57063;51.406;-2.402;2022-08-02T05:33:44;100502.88;;;23.13;100.00
48882;BME280;57063;51.406;-2.402;2022-08-02T05:36:09;100499.84;;;22.78;100.00
48882;BME280;57063;51.406;-2.402;2022-08-02T05:38:35;100496.69;;;22.74;100.00
48882;BME280;57063;51.406;-2.402;2022-08-02T05:41:01;100506.75;;;22.72;100.00
48882;BME280;57063;51.406;-2.402;2022-08-02T05:43:26;100496.03;;;23.10;100.00
48882;BME280;57063;51.406;-2.402;2022-08-02T05:45:51;100493.56;;;23.09;100.00
48882;BME280;57063;51.406;-2.402;2022-08-02T05:48:17;100491.50;;;23.26;100.00
48882;BME280;57063;51.406;-2.402;2022-08-02T05:50:43;100493.28;;;23.04;100.00
48882;BME280;57063;51.406;-2.402;2022-08-02T05:55:35;100494.63;;;23.00;100.00
48882;BME280;57063;51.406;-2.402;2022-08-02T06:00:41;100492.91;;;23.36;100.00
48882;BME280;57063;51.406;-2.402;2022-08-02T06:06:04;100483.22;;;23.87;100.00
48882;BME280;57063;51.406;-2.402;2022-08-02T06:08:41;100489.91;;;23.61;100.00
48882;BME280;57063;51.406;-2.402;2022-08-02T06:11:07;100486.34;;;23.54;100.00
48882;BME280;57063;51.406;-2.402;2022-08-02T06:13:36;100484.06;;;23.87;100.00
48882;BME280;57063;51.406;-2.402;2022-08-02T06:16:01;100481.75;;;23.69;100.00
48882;BME280;57063;51.406;-2.402;2022-08-02T06:18:27;100482.34;;;23.80;100.00
48882;BME280;57063;51.406;-2.402;2022-08-02T06:20:53;100488.25;;;23.60;100.00
48882;BME280;57063;51.406;-2.402;2022-08-02T06:23:19;100482.41;;;23.71;100.00
48882;BME280;57063;51.406;-2.402;2022-08-02T06:25:45;100492.75;;;23.74;100.00
48882;BME280;57063;51.406;-2.402;2022-08-02T06:28:11;100494.16;;;23.70;100.00
48882;BME280;57063;51.406;-2.402;2022-08-02T06:30:37;100494.78;;;23.72;100.00
48882;BME280;57063;51.406;-2.402;2022-08-02T06:33:03;100501.84;;;24.10;100.00
48882;BME280;57063;51.406;-2.402;2022-08-02T06:35:32;100497.72;;;23.92;100.00
48882;BME280;57063;51.406;-2.402;2022-08-02T06:38:00;100505.50;;;23.87;100.00
48882;BME280;57063;51.406;-2.402;2022-08-02T06:45:42;100504.72;;;24.08;100.00
48882;BME280;57063;51.406;-2.402;2022-08-02T06:48:08;100513.78;;;24.29;100.00
48882;BME280;57063;51.406;-2.402;2022-08-02T06:50:34;100508.75;;;24.62;100.00
48882;BME280;57063;51.406;-2.402;2022-08-02T06:53:02;100508.81;;;24.47;100.00
48882;BME280;57063;51.406;-2.402;2022-08-02T06:55:28;100500.34;;;24.29;100.00
48882;BME280;57063;51.406;-2.402;2022-08-02T06:57:56;100509.19;;;24.23;100.00
48882;BME280;57063;51.406;-2.402;2022-08-02T07:00:21;100512.47;;;24.89;99.53
48882;BME280;57063;51.406;-2.402;2022-08-02T07:02:48;100503.75;;;24.81;99.57
48882;BME280;57063;51.406;-2.402;2022-08-02T07:05:14;100511.13;;;25.00;98.41
48882;BME280;57063;51.406;-2.402;2022-08-02T07:07:39;100516.75;;;24.84;99.16
48882;BME280;57063;51.406;-2.402;2022-08-02T07:10:05;100515.59;;;24.43;100.00
48882;BME280;57063;51.406;-2.402;2022-08-02T07:12:32;100524.72;;;24.99;98.39
48882;BME280;57063;51.406;-2.402;2022-08-02T07:15:03;100518.25;;;24.86;98.36
48882;BME280;57063;51.406;-2.402;2022-08-02T07:17:30;100520.97;;;24.93;97.57
48882;BME280;57063;51.406;-2.402;2022-08-02T07:19:56;100516.75;;;25.40;96.27
48882;BME280;57063;51.406;-2.402;2022-08-02T07:22:22;100525.41;;;25.07;96.71
48882;BME280;57063;51.406;-2.402;2022-08-02T07:24:49;100516.53;;;24.79;97.73
48882;BME280;57063;51.406;-2.402;2022-08-02T07:27:14;100526.88;;;25.10;97.21
48882;BME280;57063;51.406;-2.402;2022-08-02T07:29:40;100526.97;;;24.67;99.76
48882;BME280;57063;51.406;-2.402;2022-08-02T07:32:06;100534.06;;;25.03;98.77
48882;BME280;57063;51.406;-2.402;2022-08-02T07:34:31;100527.09;;;24.37;100.00
48882;BME280;57063;51.406;-2.402;2022-08-02T07:36:56;100524.28;;;24.95;99.86
48882;BME280;57063;51.406;-2.402;2022-08-02T07:39:22;100533.88;;;24.54;100.00
48882;BME280;57063;51.406;-2.402;2022-08-02T07:41:47;100523.22;;;24.25;100.00
48882;BME280;57063;51.406;-2.402;2022-08-02T07:44:15;100522.19;;;24.90;99.93
48882;BME280;57063;51.406;-2.402;2022-08-02T07:46:41;100524.59;;;24.79;100.00
48882;BME280;57063;51.406;-2.402;2022-08-02T07:49:06;100536.75;;;25.03;99.43
48882;BME280;57063;51.406;-2.402;2022-08-02T07:51:31;100529.09;;;25.28;99.02
48882;BME280;57063;51.406;-2.402;2022-08-02T07:53:57;100527.28;;;24.79;99.86
48882;BME280;57063;51.406;-2.402;2022-08-02T07:56:22;100530.13;;;25.33;98.56
48882;BME280;57063;51.406;-2.402;2022-08-02T07:58:48;100533.06;;;25.39;99.19
48882;BME280;57063;51.406;-2.402;2022-08-02T08:01:13;100537.97;;;25.28;99.65
48882;BME280;57063;51.406;-2.402;2022-08-02T08:03:39;100536.56;;;25.32;98.83
48882;BME280;57063;51.406;-2.402;2022-08-02T08:06:04;100543.63;;;25.40;98.36
48882;BME280;57063;51.406;-2.402;2022-08-02T08:08:29;100532.78;;;25.27;100.00
48882;BME280;57063;51.406;-2.402;2022-08-02T08:10:54;100542.50;;;25.00;99.59
48882;BME280;57063;51.406;-2.402;2022-08-02T08:13:19;100536.41;;;24.84;99.85
48882;BME280;57063;51.406;-2.402;2022-08-02T08:15:45;100547.19;;;24.91;100.00
48882;BME280;57063;51.406;-2.402;2022-08-02T08:18:10;100548.19;;;25.40;98.98
48882;BME280;57063;51.406;-2.402;2022-08-02T08:20:36;100543.38;;;25.07;99.98
48882;BME280;57063;51.406;-2.402;2022-08-02T08:23:01;100532.91;;;24.62;100.00
48882;BME280;57063;51.406;-2.402;2022-08-02T08:25:26;100536.63;;;25.18;99.33
48882;BME280;57063;51.406;-2.402;2022-08-02T08:27:52;100528.19;;;25.21;99.45
48882;BME280;57063;51.406;-2.402;2022-08-02T08:30:18;100527.84;;;24.74;100.00
48882;BME280;57063;51.406;-2.402;2022-08-02T08:32:43;100529.63;;;24.88;100.00
48882;BME280;57063;51.406;-2.402;2022-08-02T08:35:08;100527.59;;;24.69;100.00
48882;BME280;57063;51.406;-2.402;2022-08-02T08:37:37;100519.28;;;24.92;99.99
48882;BME280;57063;51.406;-2.402;2022-08-02T08:40:06;100526.69;;;25.46;97.98
48882;BME280;57063;51.406;-2.402;2022-08-02T08:42:32;100527.06;;;24.80;99.76
48882;BME280;57063;51.406;-2.402;2022-08-02T08:44:58;100521.59;;;25.23;98.25
48882;BME280;57063;51.406;-2.402;2022-08-02T08:47:25;100517.06;;;25.65;95.19
48882;BME280;57063;51.406;-2.402;2022-08-02T08:49:52;100512.78;;;25.84;95.43
48882;BME280;57063;51.406;-2.402;2022-08-02T08:52:19;100508.91;;;25.94;94.07
48882;BME280;57063;51.406;-2.402;2022-08-02T08:54:47;100505.06;;;26.29;92.48
48882;BME280;57063;51.406;-2.402;2022-08-02T08:57:14;100516.72;;;26.70;90.44
48882;BME280;57063;51.406;-2.402;2022-08-02T08:59:39;100509.03;;;26.74;89.27
48882;BME280;57063;51.406;-2.402;2022-08-02T09:02:05;100512.25;;;26.02;92.35
48882;BME280;57063;51.406;-2.402;2022-08-02T09:04:30;100514.53;;;26.05;91.21
48882;BME280;57063;51.406;-2.402;2022-08-02T09:06:56;100510.84;;;26.33;90.69
48882;BME280;57063;51.406;-2.402;2022-08-02T09:09:21;100519.00;;;26.66;88.16
48882;BME280;57063;51.406;-2.402;2022-08-02T09:11:46;100517.66;;;26.22;90.56
48882;BME280;57063;51.406;-2.402;2022-08-02T09:14:12;100513.34;;;26.35;90.36
48882;BME280;57063;51.406;-2.402;2022-08-02T09:16:49;100497.81;;;26.57;90.32
48882;BME280;57063;51.406;-2.402;2022-08-02T09:19:24;100505.28;;;26.95;88.99
48882;BME280;57063;51.406;-2.402;2022-08-02T09:21:50;100498.66;;;26.50;88.13
48882;BME280;57063;51.406;-2.402;2022-08-02T09:24:20;100505.06;;;26.89;88.73
48882;BME280;57063;51.406;-2.402;2022-08-02T09:26:46;100507.59;;;26.64;88.50
48882;BME280;57063;51.406;-2.402;2022-08-02T09:29:12;100500.72;;;26.95;87.44
48882;BME280;57063;51.406;-2.402;2022-08-02T09:31:38;100497.84;;;26.63;87.42
48882;BME280;57063;51.406;-2.402;2022-08-02T09:34:03;100498.81;;;26.16;89.52
48882;BME280;57063;51.406;-2.402;2022-08-02T09:36:39;100502.97;;;26.38;89.47
48882;BME280;57063;51.406;-2.402;2022-08-02T09:39:05;100501.34;;;26.57;88.92
48882;BME280;57063;51.406;-2.402;2022-08-02T09:41:35;100503.00;;;26.25;89.92
48882;BME280;57063;51.406;-2.402;2022-08-02T09:44:03;100500.88;;;26.14;91.23
48882;BME280;57063;51.406;-2.402;2022-08-02T09:46:29;100502.53;;;26.08;91.25
48882;BME280;57063;51.406;-2.402;2022-08-02T09:51:24;100504.66;;;26.39;89.64
48882;BME280;57063;51.406;-2.402;2022-08-02T09:53:51;100506.22;;;26.00;89.81
48882;BME280;57063;51.406;-2.402;2022-08-02T09:56:18;100510.44;;;26.29;89.35
48882;BME280;57063;51.406;-2.402;2022-08-02T09:58:44;100497.38;;;26.13;90.37
48882;BME280;57063;51.406;-2.402;2022-08-02T10:01:09;100507.16;;;26.54;88.04
48882;BME280;57063;51.406;-2.402;2022-08-02T10:03:34;100505.09;;;26.69;87.67
48882;BME280;57063;51.406;-2.402;2022-08-02T10:06:00;100505.50;;;26.86;86.85
48882;BME280;57063;51.406;-2.402;2022-08-02T10:08:29;100508.38;;;26.51;87.55
48882;BME280;57063;51.406;-2.402;2022-08-02T10:10:54;100508.81;;;26.48;88.85
48882;BME280;57063;51.406;-2.402;2022-08-02T10:13:26;100521.25;;;26.63;88.29
48882;BME280;57063;51.406;-2.402;2022-08-02T10:15:52;100520.81;;;26.39;89.29
48882;BME280;57063;51.406;-2.402;2022-08-02T10:18:17;100510.66;;;27.08;86.83
48882;BME280;57063;51.406;-2.402;2022-08-02T10:20:43;100509.44;;;26.70;87.47
48882;BME280;57063;51.406;-2.402;2022-08-02T10:23:10;100524.50;;;27.18;86.00
48882;BME280;57063;51.406;-2.402;2022-08-02T10:25:37;100519.31;;;27.37;86.22
48882;BME280;57063;51.406;-2.402;2022-08-02T10:28:03;100518.34;;;26.71;89.42
48882;BME280;57063;51.406;-2.402;2022-08-02T10:30:30;100518.13;;;27.06;88.46
48882;BME280;57063;51.406;-2.402;2022-08-02T10:32:56;100513.03;;;28.33;83.93
48882;BME280;57063;51.406;-2.402;2022-08-02T10:35:23;100520.78;;;28.55;83.52
48882;BME280;57063;51.406;-2.402;2022-08-02T10:37:53;100525.06;;;28.37;83.82
48882;BME280;57063;51.406;-2.402;2022-08-02T10:40:18;100537.28;;;27.56;87.65
48882;BME280;57063;51.406;-2.402;2022-08-02T10:42:52;100536.69;;;27.54;90.18
48882;BME280;57063;51.406;-2.402;2022-08-02T10:45:19;100528.78;;;27.59;90.60
48882;BME280;57063;51.406;-2.402;2022-08-02T10:55:44;100529.41;;;27.55;87.56
48882;BME280;57063;51.406;-2.402;2022-08-02T10:58:21;100523.34;;;27.73;89.00
48882;BME280;57063;51.406;-2.402;2022-08-02T11:00:48;100524.34;;;28.48;83.89
48882;BME280;57063;51.406;-2.402;2022-08-02T11:03:36;100516.22;;;28.80;81.54
48882;BME280;57063;51.406;-2.402;2022-08-02T11:06:04;100520.38;;;29.01;79.40
48882;BME280;57063;51.406;-2.402;2022-08-02T11:08:31;100523.72;;;29.40;76.61
48882;BME280;57063;51.406;-2.402;2022-08-02T11:11:14;100520.06;;;29.53;76.18
48882;BME280;57063;51.406;-2.402;2022-08-02T11:19:23;100508.59;;;29.70;70.59
48882;BME280;57063;51.406;-2.402;2022-08-02T11:22:12;100510.06;;;30.02;70.16
48882;BME280;57063;51.406;-2.402;2022-08-02T11:24:40;100507.97;;;29.74;70.27
48882;BME280;57063;51.406;-2.402;2022-08-02T11:27:07;100510.69;;;28.94;72.51
48882;BME280;57063;51.406;-2.402;2022-08-02T11:29:35;100508.84;;;28.37;75.21
48882;BME280;57063;51.406;-2.402;2022-08-02T11:32:00;100510.94;;;28.67;73.47
48882;BME280;57063;51.406;-2.402;2022-08-02T11:34:26;100513.91;;;27.95;76.48
48882;BME280;57063;51.406;-2.402;2022-08-02T11:36:53;100509.84;;;28.43;75.41
48882;BME280;57063;51.406;-2.402;2022-08-02T11:39:22;100519.34;;;27.88;80.21
48882;BME280;57063;51.406;-2.402;2022-08-02T11:41:52;100515.59;;;27.89;81.68
48882;BME280;57063;51.406;-2.402;2022-08-02T11:44:18;100512.66;;;27.46;83.45
48882;BME280;57063;51.406;-2.402;2022-08-02T11:46:43;100499.84;;;27.80;80.64
48882;BME280;57063;51.406;-2.402;2022-08-02T11:49:12;100508.84;;;28.12;78.03
48882;BME280;57063;51.406;-2.402;2022-08-02T11:51:38;100512.59;;;27.53;80.44
48882;BME280;57063;51.406;-2.402;2022-08-02T11:54:03;100506.75;;;27.62;79.97
48882;BME280;57063;51.406;-2.402;2022-08-02T11:56:29;100506.47;;;27.84;79.86
48882;BME280;57063;51.406;-2.402;2022-08-02T12:01:24;100503.03;;;28.08;78.94
48882;BME280;57063;51.406;-2.402;2022-08-02T12:03:50;100513.13;;;27.81;80.48
48882;BME280;57063;51.406;-2.402;2022-08-02T12:06:16;100515.41;;;27.84;81.19
48882;BME280;57063;51.406;-2.402;2022-08-02T12:08:42;100510.53;;;28.06;81.51
48882;BME280;57063;51.406;-2.402;2022-08-02T12:11:07;100505.38;;;28.30;79.40
48882;BME280;57063;51.406;-2.402;2022-08-02T12:13:42;100497.44;;;28.35;78.11
48882;BME280;57063;51.406;-2.402;2022-08-02T12:16:11;100508.72;;;28.82;77.77
48882;BME280;57063;51.406;-2.402;2022-08-02T12:18:56;100511.16;;;28.65;77.86
48882;BME280;57063;51.406;-2.402;2022-08-02T12:21:39;100508.25;;;28.35;78.86
48882;BME280;57063;51.406;-2.402;2022-08-02T12:24:05;100503.72;;;28.29;80.12
48882;BME280;57063;51.406;-2.402;2022-08-02T12:26:39;100507.63;;;28.33;81.24
48882;BME280;57063;51.406;-2.402;2022-08-02T12:29:04;100512.31;;;28.95;77.81
48882;BME280;57063;51.406;-2.402;2022-08-02T12:31:44;100515.88;;;28.13;80.86
48882;BME280;57063;51.406;-2.402;2022-08-02T12:34:14;100508.84;;;28.05;83.64
48882;BME280;57063;51.406;-2.402;2022-08-02T12:36:43;100502.94;;;28.22;82.04
48882;BME280;57063;51.406;-2.402;2022-08-02T12:39:12;100514.44;;;28.42;82.17
48882;BME280;57063;51.406;-2.402;2022-08-02T12:41:39;100517.47;;;29.03;80.34
48882;BME280;57063;51.406;-2.402;2022-08-02T12:44:14;100515.88;;;28.95;80.21
48882;BME280;57063;51.406;-2.402;2022-08-02T12:46:40;100515.56;;;28.60;81.80
48882;BME280;57063;51.406;-2.402;2022-08-02T12:49:16;100519.22;;;28.72;82.55
48882;BME280;57063;51.406;-2.402;2022-08-02T12:51:42;100522.97;;;28.07;86.33
48882;BME280;57063;51.406;-2.402;2022-08-02T12:54:21;100518.00;;;28.04;86.71
48882;BME280;57063;51.406;-2.402;2022-08-02T12:56:48;100518.50;;;29.02;81.69
48882;BME280;57063;51.406;-2.402;2022-08-02T12:59:14;100506.88;;;28.26;83.62
48882;BME280;57063;51.406;-2.402;2022-08-02T13:01:40;100506.41;;;28.61;83.23
48882;BME280;57063;51.406;-2.402;2022-08-02T13:04:05;100497.91;;;29.44;80.96
48882;BME280;57063;51.406;-2.402;2022-08-02T13:06:31;100487.50;;;29.78;77.99
48882;BME280;57063;51.406;-2.402;2022-08-02T13:08:57;100486.53;;;30.57;74.54
48882;BME280;57063;51.406;-2.402;2022-08-02T13:11:26;100484.16;;;30.72;71.82
48882;BME280;57063;51.406;-2.402;2022-08-02T13:13:51;100482.75;;;30.34;72.42